Accueil
METAR-TAF:

METAR-TAF

Aéroports :

Aéroport de La Rochelle - île de Ré

La Rochelle, France

latitude: 46-10-45N, longitude: 1-11-43W, altitude: 23 m

Observation

Le bulletin a été fait il y a 17 minutes, à 10:00 UTC
Vent 12 kt de est
Température 17°C
Humidité 72%
Pression 1026 hPa
Visibilité: 6000 m

METAR: LFBH 201000Z AUTO 08012KT 6000 NSC 17/12 Q1026 NOSIG

Heure: 12:17 (10:17 UTC)

Prévision

Le bulletin a été fait il y a 2 heures et 39 minutes, à 07:38 UTC
Prévision valable du 20 à 07 UTC au 21 à 06 UTC
Vent 10 kt de nord-est
Visibilité: 4000 m
brume
Evoluant progressivement
du 20 à 08 UTC au 20 à 10 UTC
Visibilité 10 km ou plus
pas de nuages en-dessous de 1500 mètres et pas de cumulonimbus.

TAF: LFBH 200738Z 2007/2106 05010KT 4000 BR NSC BECMG 2008/2010 CAVOK

Observations et prévisions météorologiques de plus de 4000 aéroports (messages METAR et TAF).

Les stations disponibles sont représentées par des disques jaunes et rouges sur la carte.

Passer la souris dessus pour voir le nom de la station.

Cliquer dessus pour voir les observations et prévisions météorologiques.

Pour changer de carte: cliquez sur les boutons verts avec une croix noire pour zoomer, sur le bouton vert avec un tiret pour effectuer un zoom arrière, ou sur les flèches vertes pour les cartes adjacentes.


METAR-TAF: